Time;durP1;ratioP1;P1;durP2;ratioP2;P2;SDS_P1;SDS_P2;PMS_P1;PMS_P2;Temp;Humidity;BMP_temperature;BMP_pressure;BME280_temperature;BME280_humidity;BME280_pressure;Samples;Min_cycle;Max_cycle;Signal;HPM_P1;HPM_P2
2023/06/25 00:00:18;;;;;;;23.40;8.00;;;;;;;16.44;100.00;99263.61;135587;1278;25371;-69
2023/06/25 00:03:41;;;;;;;23.10;8.40;;;;;;;16.27;100.00;99265.77;135594;1278;22540;-65
2023/06/25 00:06:44;;;;;;;23.20;7.50;;;;;;;16.14;100.00;99268.20;135559;1278;22715;-69
2023/06/25 00:09:56;;;;;;;;;;;;;;;16.05;100.00;99269.06;135795;1278;22514;-72
2023/06/25 00:13:00;;;;;;;21.50;7.40;;;;;;;16.05;100.00;99269.23;135785;1278;22540;-68
2023/06/25 00:16:03;;;;;;;20.10;6.60;;;;;;;16.11;100.00;99272.98;135750;1278;22529;-63
2023/06/25 00:19:07;;;;;;;23.20;8.60;;;;;;;16.13;100.00;99269.14;135759;1278;22523;-63
2023/06/25 00:22:11;;;;;;;22.30;8.50;;;;;;;16.13;100.00;99267.34;135776;1278;22552;-67
2023/06/25 00:25:13;;;;;;;22.30;8.80;;;;;;;16.19;100.00;99266.90;135764;1278;22543;-70
2023/06/25 00:28:17;;;;;;;24.10;8.60;;;;;;;16.14;100.00;99265.19;135768;1260;22538;-72
2023/06/25 00:31:27;;;;;;;23.70;8.20;;;;;;;16.15;100.00;99263.38;135713;1278;22543;-61
2023/06/25 00:34:30;;;;;;;;;;;;;;;16.03;100.00;99263.50;135801;1257;23127;-66
2023/06/25 00:37:57;;;;;;;21.70;7.60;;;;;;;15.97;100.00;99262.63;135703;1278;22562;-61
2023/06/25 00:41:00;;;;;;;23.90;8.10;;;;;;;15.94;100.00;99262.30;135750;1278;22571;-67
2023/06/25 00:44:03;;;;;;;23.30;7.60;;;;;;;16.04;100.00;99260.10;135751;1278;22554;-69
2023/06/25 00:47:06;;;;;;;23.80;9.10;;;;;;;15.95;100.00;99255.82;135660;1278;22536;-72
2023/06/25 00:50:11;;;;;;;23.90;8.40;;;;;;;16.11;100.00;99260.50;135746;1278;22538;-66
2023/06/25 00:53:14;;;;;;;22.60;8.70;;;;;;;16.06;100.00;99258.21;135763;1278;22580;-70
2023/06/25 00:56:17;;;;;;;24.50;8.40;;;;;;;15.97;100.00;99254.97;135727;1278;22534;-72
2023/06/25 00:59:23;;;;;;;25.80;10.40;;;;;;;15.93;100.00;99251.08;135733;1278;22639;-64
2023/06/25 01:02:26;;;;;;;23.10;8.70;;;;;;;16.00;100.00;99251.09;135532;1278;22526;-62
2023/06/25 01:05:33;;;;;;;24.10;8.70;;;;;;;16.05;100.00;99250.66;135795;1278;22645;-62
2023/06/25 01:08:36;;;;;;;24.20;8.40;;;;;;;16.02;100.00;99244.90;135666;1278;22538;-62
2023/06/25 01:11:39;;;;;;;25.90;9.00;;;;;;;16.03;100.00;99238.52;135684;1278;22531;-67
2023/06/25 01:14:43;;;;;;;24.90;8.60;;;;;;;16.06;100.00;99238.27;135789;1278;22647;-62
2023/06/25 01:17:51;;;;;;;22.90;8.70;;;;;;;16.02;100.00;99234.17;135576;1278;22539;-66
2023/06/25 01:20:56;;;;;;;24.00;8.70;;;;;;;15.93;100.00;99230.83;135766;1276;22682;-62
2023/06/25 01:24:00;;;;;;;24.00;8.90;;;;;;;15.87;100.00;99226.34;135798;1259;22537;-70
2023/06/25 01:27:04;;;;;;;21.40;7.80;;;;;;;15.75;100.00;99227.01;135661;1261;22513;-62
2023/06/25 01:30:10;;;;;;;21.10;6.90;;;;;;;15.64;100.00;99222.90;135769;1278;22542;-65
2023/06/25 01:33:15;;;;;;;21.40;7.00;;;;;;;15.49;100.00;99219.13;135768;1278;22540;-69
2023/06/25 01:36:19;;;;;;;20.00;7.00;;;;;;;15.42;100.00;99220.83;135728;1278;24281;-70
2023/06/25 01:39:29;;;;;;;19.00;6.50;;;;;;;15.35;100.00;99216.48;135770;1260;22549;-71
2023/06/25 01:42:35;;;;;;;20.70;6.40;;;;;;;15.33;100.00;99213.09;135744;1278;22726;-71
2023/06/25 01:45:38;;;;;;;20.00;7.10;;;;;;;15.31;100.00;99207.20;135739;1278;22534;-73
2023/06/25 01:48:45;;;;;;;20.10;6.40;;;;;;;15.24;100.00;99208.44;135753;1264;22539;-71
2023/06/25 01:51:48;;;;;;;17.10;4.90;;;;;;;15.17;100.00;99206.16;135550;1278;22547;-72
2023/06/25 01:54:58;;;;;;;14.70;4.50;;;;;;;15.05;100.00;99209.84;135736;1278;22526;-69
2023/06/25 01:58:02;;;;;;;15.70;5.20;;;;;;;15.05;100.00;99209.27;135774;1278;22653;-63
2023/06/25 02:01:06;;;;;;;19.00;6.10;;;;;;;15.00;100.00;99205.43;135757;1278;22538;-70
2023/06/25 02:04:09;;;;;;;18.50;6.30;;;;;;;15.00;100.00;99205.27;135530;1278;22529;-73
2023/06/25 02:07:13;;;;;;;18.00;5.60;;;;;;;14.99;100.00;99205.84;135750;1278;22540;-63
2023/06/25 02:10:16;;;;;;;;;;;;;;;15.04;100.00;99204.10;135697;1278;25455;-63
2023/06/25 02:13:23;;;;;;;17.10;5.50;;;;;;;14.98;100.00;99206.14;135772;1278;22578;-66
2023/06/25 02:16:25;;;;;;;18.10;5.70;;;;;;;14.92;100.00;99205.14;135749;1260;24347;-70
2023/06/25 02:19:28;;;;;;;16.30;4.70;;;;;;;14.85;100.00;99204.41;135810;1278;22523;-71
2023/06/25 02:22:31;;;;;;;20.20;7.90;;;;;;;14.90;100.00;99204.04;135627;1278;22563;-70
2023/06/25 02:25:35;;;;;;;23.70;7.00;;;;;;;14.90;100.00;99201.77;135779;1278;22523;-69
2023/06/25 02:28:38;;;;;;;17.90;5.10;;;;;;;14.85;100.00;99203.38;135776;1278;22522;-72
2023/06/25 02:31:41;;;;;;;22.10;7.00;;;;;;;14.80;100.00;99206.39;135736;1264;22537;-64
2023/06/25 02:34:44;;;;;;;20.10;5.60;;;;;;;14.83;100.00;99206.70;135770;1278;22541;-63
2023/06/25 02:37:48;;;;;;;18.20;5.70;;;;;;;14.71;100.00;99206.86;135652;1278;26572;-62
2023/06/25 02:40:51;;;;;;;17.20;5.40;;;;;;;14.65;100.00;99202.54;135726;1278;22549;-65
2023/06/25 02:43:53;;;;;;;15.50;5.40;;;;;;;14.63;100.00;99199.85;135734;1278;25250;-69
2023/06/25 02:46:56;;;;;;;;;;;;;;;14.57;100.00;99201.45;135756;1278;24381;-61
2023/06/25 02:49:59;;;;;;;20.40;6.20;;;;;;;14.56;100.00;99202.25;135746;1278;22549;-72
2023/06/25 02:53:01;;;;;;;22.40;6.80;;;;;;;14.63;100.00;99200.91;135742;1278;22534;-66
2023/06/25 02:56:05;;;;;;;19.00;6.40;;;;;;;14.77;100.00;99201.86;128959;1278;1003866;-70
2023/06/25 02:59:08;;;;;;;15.00;4.50;;;;;;;14.91;100.00;99201.02;67847;1278;1016500;-71
2023/06/25 03:02:12;;;;;;;16.50;5.20;;;;;;;14.98;100.00;99198.93;67834;1278;1016415;-62
2023/06/25 03:05:14;;;;;;;18.30;5.40;;;;;;;15.01;100.00;99196.41;67780;1278;1016200;-60
2023/06/25 03:08:19;;;;;;;19.30;5.90;;;;;;;15.15;100.00;99200.45;67818;1278;1016379;-67
2023/06/25 03:11:22;;;;;;;20.30;6.40;;;;;;;15.24;100.00;99202.77;67835;1278;1016429;-61
2023/06/25 03:14:27;;;;;;;20.30;6.20;;;;;;;15.58;100.00;99200.44;67765;1278;1016437;-66
2023/06/25 03:17:30;;;;;;;19.80;6.00;;;;;;;15.75;100.00;99201.48;67839;1278;1016418;-68
2023/06/25 03:20:34;;;;;;;19.10;5.70;;;;;;;15.88;100.00;99202.99;67835;1278;1016339;-60
2023/06/25 03:23:37;;;;;;;20.90;6.70;;;;;;;15.96;100.00;99198.27;67806;1278;1016427;-60
2023/06/25 03:26:40;;;;;;;19.50;6.50;;;;;;;16.07;100.00;99193.54;67793;1278;1017030;-67
2023/06/25 03:29:43;;;;;;;17.90;5.10;;;;;;;16.30;100.00;99192.69;67803;1278;1016933;-60
2023/06/25 03:32:47;;;;;;;17.10;5.60;;;;;;;16.56;100.00;99193.58;67813;1278;1016449;-67
2023/06/25 03:35:49;;;;;;;18.00;5.60;;;;;;;16.67;100.00;99193.61;67807;1278;1017035;-67
2023/06/25 03:38:55;;;;;;;17.70;5.40;;;;;;;16.88;100.00;99196.15;67855;1278;1015966;-61
2023/06/25 03:41:58;;;;;;;25.10;6.00;;;;;;;17.01;100.00;99198.15;67844;1278;1016352;-67
2023/06/25 03:45:01;;;;;;;18.60;6.10;;;;;;;17.06;100.00;99201.27;67768;1278;1016451;-65
2023/06/25 03:48:04;;;;;;;19.40;6.70;;;;;;;17.32;100.00;99203.38;67873;1278;1016330;-60
2023/06/25 03:51:08;;;;;;;20.20;7.10;;;;;;;17.61;100.00;99208.36;67871;1278;1016330;-67
2023/06/25 03:54:11;;;;;;;21.20;7.10;;;;;;;17.58;100.00;99205.27;67810;1278;1016415;-64
2023/06/25 03:57:14;;;;;;;22.00;7.10;;;;;;;17.84;100.00;99204.85;67752;1278;1016257;-67
2023/06/25 04:00:19;;;;;;;18.00;6.20;;;;;;;17.84;100.00;99211.56;67859;1278;1015917;-67
2023/06/25 04:03:22;;;;;;;19.60;7.00;;;;;;;18.06;100.00;99211.33;67781;1278;1016775;-65
2023/06/25 04:06:25;;;;;;;21.20;7.10;;;;;;;18.10;100.00;99214.93;67871;1278;1016367;-67
2023/06/25 04:09:28;;;;;;;22.70;7.20;;;;;;;18.31;100.00;99209.05;67795;1278;1015937;-66
2023/06/25 04:12:31;;;;;;;22.40;7.20;;;;;;;18.61;100.00;99204.84;67816;1278;1016437;-68
2023/06/25 04:15:54;;;;;;;22.90;8.10;;;;;;;18.48;100.00;99205.77;67795;1278;1016449;-63
2023/06/25 04:18:56;;;;;;;23.60;8.70;;;;;;;18.55;100.00;99205.19;67817;1278;1018743;-68
2023/06/25 04:22:00;;;;;;;23.90;9.20;;;;;;;18.69;100.00;99207.28;67753;1278;1015842;-64
2023/06/25 04:25:03;;;;;;;23.90;10.20;;;;;;;18.90;100.00;99208.67;67842;1278;1016758;-62
2023/06/25 04:28:06;;;;;;;25.40;9.60;;;;;;;19.00;100.00;99207.60;67816;1278;1017159;-68
2023/06/25 04:31:08;;;;;;;26.00;10.80;;;;;;;19.20;100.00;99201.38;67868;1278;1016432;-62
2023/06/25 04:34:15;;;;;;;29.30;11.20;;;;;;;19.33;100.00;99197.84;67870;1278;1016200;-61
2023/06/25 04:37:18;;;;;;;25.10;11.40;;;;;;;19.53;100.00;99193.04;67805;1278;1016206;-67
2023/06/25 04:40:20;;;;;;;25.10;11.50;;;;;;;19.52;100.00;99191.67;67870;1278;1016480;-62
2023/06/25 04:43:23;;;;;;;24.30;11.60;;;;;;;19.62;100.00;99187.40;67861;1278;1018354;-61
2023/06/25 04:46:27;;;;;;;28.00;11.30;;;;;;;19.72;100.00;99188.93;67854;1278;1016511;-61
2023/06/25 04:49:30;;;;;;;27.70;12.00;;;;;;;19.70;100.00;99186.42;67794;1278;1018625;-64
2023/06/25 04:52:36;;;;;;;27.40;12.10;;;;;;;19.84;100.00;99189.27;67783;1278;1018087;-67
2023/06/25 04:55:39;;;;;;;25.10;12.00;;;;;;;19.57;100.00;99187.30;67791;1278;1015978;-62
2023/06/25 04:58:46;;;;;;;26.10;11.50;;;;;;;19.67;100.00;99185.89;67795;1278;1016451;-61
2023/06/25 05:01:48;;;;;;;;;;;;;;;20.03;100.00;99181.83;67810;1278;1016404;-64
2023/06/25 05:04:55;;;;;;;25.10;11.70;;;;;;;20.28;100.00;99180.73;67806;1278;1016326;-61
2023/06/25 05:07:59;;;;;;;26.40;12.20;;;;;;;20.50;100.00;99178.98;67829;1278;1016424;-61
2023/06/25 05:11:02;;;;;;;26.50;11.90;;;;;;;20.56;100.00;99178.75;67799;1278;1016495;-61
2023/06/25 05:14:07;;;;;;;26.90;11.70;;;;;;;20.91;100.00;99178.95;67788;1278;1016182;-61
2023/06/25 05:17:10;;;;;;;27.60;12.50;;;;;;;21.30;100.00;99180.38;67810;1278;1015891;-62
2023/06/25 05:20:13;;;;;;;25.90;12.40;;;;;;;21.57;99.85;99176.81;67821;1278;1016456;-62
2023/06/25 05:23:16;;;;;;;23.40;10.80;;;;;;;21.60;98.59;99178.98;67772;1278;1016129;-62
2023/06/25 05:26:18;;;;;;;25.10;11.70;;;;;;;21.66;99.17;99179.70;67803;1278;1016134;-62
2023/06/25 05:29:21;;;;;;;29.60;13.10;;;;;;;21.75;98.16;99182.17;67817;1278;1016424;-62
2023/06/25 05:32:24;;;;;;;24.10;10.90;;;;;;;22.13;99.11;99176.32;67828;1278;1015836;-61
2023/06/25 05:35:28;;;;;;;27.00;11.70;;;;;;;22.21;99.41;99173.30;67842;1278;1015954;-62
2023/06/25 05:38:31;;;;;;;27.70;12.20;;;;;;;22.61;97.39;99175.10;67834;1278;1016474;-66
2023/06/25 05:41:34;;;;;;;25.30;12.00;;;;;;;22.94;95.83;99170.64;67814;1278;1016463;-64
2023/06/25 05:44:36;;;;;;;26.60;11.50;;;;;;;23.24;93.47;99174.57;67812;1278;1018441;-62
2023/06/25 05:47:39;;;;;;;25.50;11.60;;;;;;;23.38;93.69;99175.58;67844;1278;1016739;-62
2023/06/25 05:50:43;;;;;;;26.30;11.20;;;;;;;23.87;93.17;99176.33;67753;1278;1016483;-65
2023/06/25 05:53:45;;;;;;;24.70;10.60;;;;;;;24.24;88.67;99178.48;67813;1278;1016488;-62
2023/06/25 05:56:48;;;;;;;24.80;11.50;;;;;;;24.07;88.42;99180.21;67742;1278;1016246;-67
2023/06/25 05:59:52;;;;;;;24.70;11.10;;;;;;;23.97;89.86;99180.89;67855;1278;1016453;-66
2023/06/25 06:02:56;;;;;;;24.80;11.30;;;;;;;24.15;90.38;99181.67;67848;1278;1015912;-62
2023/06/25 06:05:59;;;;;;;24.10;11.30;;;;;;;24.28;87.72;99178.76;67810;1278;1016388;-64
2023/06/25 06:09:01;;;;;;;26.60;11.50;;;;;;;24.28;86.45;99175.48;67825;1278;1016442;-66
2023/06/25 06:12:04;;;;;;;24.90;11.70;;;;;;;23.67;90.32;99176.55;67838;1278;1016848;-62
2023/06/25 06:15:10;;;;;;;25.40;11.70;;;;;;;24.09;91.60;99175.87;67839;1278;1016254;-62
2023/06/25 06:18:17;;;;;;;27.20;12.10;;;;;;;24.79;89.05;99174.18;67785;1278;1016068;-66
2023/06/25 06:21:20;;;;;;;24.30;11.90;;;;;;;24.72;85.87;99173.23;67837;1278;1016049;-66
2023/06/25 06:24:25;;;;;;;24.90;11.90;;;;;;;24.56;85.47;99172.89;67860;1278;1016538;-64
2023/06/25 06:27:27;;;;;;;24.80;10.90;;;;;;;24.29;86.51;99172.34;67754;1278;1018356;-66
2023/06/25 06:30:30;;;;;;;24.00;10.90;;;;;;;24.39;86.11;99167.87;67788;1278;1016157;-66
2023/06/25 06:33:33;;;;;;;24.40;11.00;;;;;;;24.55;85.70;99166.53;67818;1278;1016728;-62
2023/06/25 06:36:36;;;;;;;25.80;11.30;;;;;;;24.96;84.53;99167.95;67806;1278;1016456;-62
2023/06/25 06:39:39;;;;;;;29.10;12.00;;;;;;;25.12;87.01;99168.03;67771;1278;1016755;-67
2023/06/25 06:42:42;;;;;;;24.80;11.10;;;;;;;25.82;84.40;99171.38;67845;1278;1016250;-66
2023/06/25 06:45:45;;;;;;;24.30;10.90;;;;;;;26.02;82.20;99167.02;67815;1278;1016522;-63
2023/06/25 06:48:48;;;;;;;24.90;10.30;;;;;;;26.38;82.43;99160.95;67827;1278;1016400;-62
2023/06/25 06:51:51;;;;;;;24.20;11.10;;;;;;;26.66;78.58;99158.95;67773;1278;1016265;-67
2023/06/25 06:54:55;;;;;;;23.00;11.20;;;;;;;26.63;78.48;99159.23;67804;1278;1016223;-63
2023/06/25 06:57:58;;;;;;;24.00;10.50;;;;;;;26.68;77.80;99162.03;67774;1278;1016421;-67
2023/06/25 07:01:02;;;;;;;26.50;11.30;;;;;;;26.62;77.37;99158.98;67869;1278;1015809;-66
2023/06/25 07:04:05;;;;;;;22.70;9.90;;;;;;;26.34;78.15;99157.52;67673;1278;1017204;-65
2023/06/25 07:07:08;;;;;;;24.30;10.70;;;;;;;26.62;79.24;99154.47;67800;1278;1017033;-67
2023/06/25 07:10:12;;;;;;;26.50;11.70;;;;;;;26.74;76.60;99155.97;67810;1278;1016306;-65
2023/06/25 07:13:15;;;;;;;22.70;11.20;;;;;;;26.86;75.92;99156.81;67825;1278;1016122;-63
2023/06/25 07:16:18;;;;;;;25.10;10.80;;;;;;;26.51;76.77;99158.21;67711;1278;1016247;-63
2023/06/25 07:19:21;;;;;;;26.00;11.10;;;;;;;26.37;76.54;99160.77;67823;1278;1017284;-63
2023/06/25 07:22:23;;;;;;;24.30;11.30;;;;;;;26.39;77.78;99152.83;67752;1278;1016613;-64
2023/06/25 07:25:26;;;;;;;26.10;11.40;;;;;;;26.42;78.16;99154.50;67812;1278;1016223;-67
2023/06/25 07:28:29;;;;;;;23.40;11.20;;;;;;;26.77;76.00;99150.09;67828;1278;1016374;-67
2023/06/25 07:31:32;;;;;;;24.00;10.80;;;;;;;26.91;76.35;99144.39;67775;1278;1016471;-63
2023/06/25 07:34:35;;;;;;;22.90;10.40;;;;;;;27.00;75.68;99141.63;67785;1278;1019333;-62
2023/06/25 07:37:37;;;;;;;24.20;10.60;;;;;;;27.05;74.50;99141.14;67738;1278;1015961;-67
2023/06/25 07:40:40;;;;;;;25.90;10.60;;;;;;;27.22;75.14;99141.42;67829;1278;1016273;-66
2023/06/25 07:43:43;;;;;;;22.50;10.30;;;;;;;27.63;73.89;99140.71;67804;1278;1016156;-66
2023/06/25 07:46:46;;;;;;;21.90;10.70;;;;;;;27.52;71.82;99149.69;67847;1278;1016598;-64
2023/06/25 07:49:50;;;;;;;23.30;11.00;;;;;;;27.50;74.05;99147.08;67837;1278;1016440;-67
2023/06/25 07:52:53;;;;;;;21.80;10.40;;;;;;;27.47;73.06;99146.50;67813;1278;1015807;-65
2023/06/25 07:55:57;;;;;;;23.70;11.00;;;;;;;27.37;73.86;99144.54;67821;1278;1016934;-67
2023/06/25 07:59:00;;;;;;;20.40;9.20;;;;;;;27.86;72.13;99144.65;67809;1278;1016162;-65
2023/06/25 08:02:02;;;;;;;21.30;9.90;;;;;;;27.98;71.24;99152.40;67825;1278;1016561;-64
2023/06/25 08:05:05;;;;;;;24.00;9.90;;;;;;;27.95;70.14;99151.77;67802;1278;1016359;-64
2023/06/25 08:08:09;;;;;;;24.30;10.50;;;;;;;27.86;70.37;99144.85;67813;1278;1016227;-66
2023/06/25 08:11:12;;;;;;;22.70;9.50;;;;;;;28.04;70.24;99142.38;67741;1278;1016390;-67
2023/06/25 08:14:14;;;;;;;23.00;9.60;;;;;;;27.95;69.61;99142.34;67800;1278;1016439;-64
2023/06/25 08:17:17;;;;;;;22.90;10.00;;;;;;;28.03;69.67;99140.46;67752;1278;1016441;-63
2023/06/25 08:20:20;;;;;;;21.50;9.10;;;;;;;28.15;67.59;99144.79;67764;1278;1016720;-66
2023/06/25 08:23:23;;;;;;;23.70;9.50;;;;;;;28.22;67.53;99141.39;67806;1278;1015990;-64
2023/06/25 08:26:26;;;;;;;23.40;9.90;;;;;;;28.29;68.13;99139.63;67722;1278;1016442;-66
2023/06/25 08:29:29;;;;;;;24.10;9.40;;;;;;;28.13;68.16;99137.11;67827;1278;1016451;-62
2023/06/25 08:32:32;;;;;;;20.10;8.70;;;;;;;28.05;67.86;99140.35;67806;1278;1016418;-68
2023/06/25 08:35:35;;;;;;;22.00;9.70;;;;;;;28.08;68.76;99137.09;67804;1278;1015950;-68
2023/06/25 08:38:38;;;;;;;23.50;10.00;;;;;;;28.18;67.93;99134.10;67722;1278;1015758;-69
2023/06/25 08:41:40;;;;;;;22.10;9.90;;;;;;;28.29;68.52;99122.20;67831;1278;1016495;-68
2023/06/25 08:44:43;;;;;;;21.70;9.50;;;;;;;28.47;69.17;99122.90;67779;1278;1016214;-62
2023/06/25 08:47:46;;;;;;;24.20;9.30;;;;;;;28.53;67.88;99127.35;67773;1278;1016150;-64
2023/06/25 08:50:48;;;;;;;21.40;9.10;;;;;;;28.47;68.87;99122.56;67810;1278;1016411;-62
2023/06/25 08:53:51;;;;;;;21.00;9.10;;;;;;;28.76;67.15;99128.98;67820;1278;1016689;-69
2023/06/25 08:56:54;;;;;;;21.60;8.70;;;;;;;28.71;66.23;99126.46;67761;1278;1016219;-65
2023/06/25 08:59:57;;;;;;;23.20;8.40;;;;;;;28.87;66.84;99124.13;67817;1278;1016234;-68
2023/06/25 09:03:00;;;;;;;21.10;8.80;;;;;;;29.20;67.17;99119.39;67824;1278;1016271;-65
2023/06/25 09:06:04;;;;;;;20.30;8.70;;;;;;;29.29;66.38;99121.94;67762;1278;1016487;-64
2023/06/25 09:09:07;;;;;;;22.00;8.50;;;;;;;29.40;66.02;99121.61;67825;1278;1016457;-69
2023/06/25 09:12:10;;;;;;;21.20;8.70;;;;;;;29.11;63.01;99126.44;67787;1278;1016166;-65
2023/06/25 09:15:13;;;;;;;22.60;8.50;;;;;;;29.15;63.82;99117.69;67815;1278;1016592;-68
2023/06/25 09:18:16;;;;;;;19.70;7.50;;;;;;;29.37;61.28;99127.13;67784;1278;1016354;-65
2023/06/25 09:21:19;;;;;;;19.30;6.90;;;;;;;29.33;59.46;99121.73;67802;1278;1016423;-68
2023/06/25 09:24:22;;;;;;;22.60;7.70;;;;;;;29.58;60.83;99118.97;67766;1278;1016330;-63
2023/06/25 09:27:25;;;;;;;20.30;7.80;;;;;;;30.02;59.69;99116.65;67746;1278;1016423;-68
2023/06/25 09:30:28;;;;;;;19.90;7.70;;;;;;;30.29;59.02;99118.37;67808;1278;1016201;-63
2023/06/25 09:33:30;;;;;;;21.60;7.80;;;;;;;30.47;57.98;99121.27;67784;1278;1016475;-63
2023/06/25 09:36:33;;;;;;;21.10;8.40;;;;;;;30.55;59.33;99114.66;67797;1278;1016295;-68
2023/06/25 09:39:36;;;;;;;20.50;7.50;;;;;;;30.98;58.16;99109.84;67805;1278;1016474;-64
2023/06/25 09:42:39;;;;;;;20.80;7.60;;;;;;;30.61;55.87;99123.64;67809;1278;1016769;-66
2023/06/25 09:45:44;;;;;;;20.90;7.70;;;;;;;30.10;57.18;99117.61;67799;1278;1016291;-67
2023/06/25 09:48:47;;;;;;;22.50;7.70;;;;;;;29.76;57.61;99116.65;67761;1278;1016419;-63
2023/06/25 09:51:51;;;;;;;21.70;7.70;;;;;;;29.95;58.82;99110.50;67781;1278;1016229;-64
2023/06/25 09:54:54;;;;;;;19.80;7.40;;;;;;;30.39;58.44;99106.17;67776;1278;1016493;-66
2023/06/25 09:57:56;;;;;;;20.30;7.90;;;;;;;30.20;58.28;99116.41;67771;1278;1016414;-62
2023/06/25 10:00:59;;;;;;;25.40;8.70;;;;;;;29.76;58.68;99113.92;67776;1278;1016414;-69
2023/06/25 10:04:02;;;;;;;20.30;7.80;;;;;;;29.50;58.84;99110.25;67823;1278;1016571;-69
2023/06/25 10:07:05;;;;;;;20.20;7.70;;;;;;;29.42;59.11;99107.56;67780;1278;1016646;-67
2023/06/25 10:10:15;;;;;;;20.90;7.00;;;;;;;29.54;59.23;99107.05;67780;1278;1016343;-63
2023/06/25 10:13:18;;;;;;;20.20;7.50;;;;;;;29.82;58.38;99103.42;67800;1278;1016426;-63
2023/06/25 10:16:29;;;;;;;18.70;6.90;;;;;;;30.28;57.16;99096.27;65091;1278;6378045;-67
2023/06/25 10:19:34;;;;;;;18.50;6.50;;;;;;;30.28;56.36;99096.65;67795;1278;1016501;-70
2023/06/25 10:22:38;;;;;;;17.60;6.50;;;;;;;30.04;55.82;99098.90;67818;1278;1016430;-67
2023/06/25 10:25:41;;;;;;;22.10;6.90;;;;;;;30.04;53.26;99096.91;67817;1278;1016729;-69
2023/06/25 10:28:44;;;;;;;19.30;7.70;;;;;;;30.50;54.42;99086.16;67814;1278;1016093;-63
2023/06/25 10:31:47;;;;;;;20.00;6.60;;;;;;;30.69;51.14;99083.50;67822;1278;1017140;-64
2023/06/25 10:34:52;;;;;;;18.40;7.10;;;;;;;30.94;51.35;99078.09;67782;1278;1016479;-70
2023/06/25 10:38:03;;;;;;;21.00;6.90;;;;;;;30.36;50.41;99089.25;67835;1278;1016480;-70
2023/06/25 10:41:05;;;;;;;18.70;6.80;;;;;;;30.66;50.12;99088.64;67806;1278;1018055;-66
2023/06/25 10:44:07;;;;;;;17.80;6.50;;;;;;;30.88;47.16;99082.95;67765;1278;1016445;-68
2023/06/25 10:47:10;;;;;;;19.00;6.00;;;;;;;30.78;46.57;99085.35;67792;1278;1018748;-69
2023/06/25 10:50:14;;;;;;;18.80;6.20;;;;;;;30.73;46.47;99080.38;67834;1278;1019281;-69
2023/06/25 10:53:17;;;;;;;18.00;6.10;;;;;;;31.02;45.09;99081.73;67805;1278;1016332;-69
2023/06/25 10:56:20;;;;;;;16.70;6.10;;;;;;;31.07;43.01;99080.66;67747;1278;1016355;-70
2023/06/25 10:59:23;;;;;;;20.20;6.50;;;;;;;30.99;43.91;99073.17;67796;1278;1016334;-69
2023/06/25 11:02:25;;;;;;;19.90;6.50;;;;;;;31.23;44.55;99076.48;67795;1278;1016300;-64
2023/06/25 11:05:27;;;;;;;19.20;6.70;;;;;;;31.30;44.89;99078.52;67772;1278;1016450;-64
2023/06/25 11:08:30;;;;;;;17.20;6.40;;;;;;;31.09;44.93;99080.22;67814;1278;1016462;-70
2023/06/25 11:11:33;;;;;;;19.70;7.10;;;;;;;30.50;46.03;99085.73;67834;1278;1016367;-70
2023/06/25 11:14:35;;;;;;;19.30;6.30;;;;;;;29.74;47.06;99091.87;67741;1278;1016369;-63
2023/06/25 11:17:38;;;;;;;20.10;6.80;;;;;;;29.02;48.72;99083.58;67812;1278;1016455;-70
2023/06/25 11:20:41;;;;;;;21.00;6.50;;;;;;;28.65;49.98;99080.77;67760;1278;1016300;-70
2023/06/25 11:23:44;;;;;;;17.60;6.90;;;;;;;28.45;50.22;99079.23;67787;1278;1016523;-64
2023/06/25 11:26:47;;;;;;;17.00;6.00;;;;;;;28.40;50.30;99080.33;67828;1278;1018281;-62
2023/06/25 11:29:54;;;;;;;18.30;6.60;;;;;;;28.23;49.69;99081.36;67807;1278;1016901;-69
2023/06/25 11:32:57;;;;;;;18.90;6.60;;;;;;;28.21;49.94;99080.95;67785;1278;1016316;-69
2023/06/25 11:36:01;;;;;;;16.60;6.00;;;;;;;28.26;50.38;99080.66;67781;1278;1016448;-68
2023/06/25 11:39:04;;;;;;;19.30;6.70;;;;;;;28.22;49.99;99074.92;67750;1278;1016014;-70
2023/06/25 11:42:07;;;;;;;18.90;6.40;;;;;;;28.55;49.91;99068.92;67811;1278;1016400;-63
2023/06/25 11:45:09;;;;;;;18.90;5.90;;;;;;;28.58;49.45;99070.95;67729;1278;1016880;-63
2023/06/25 11:48:12;;;;;;;20.90;6.40;;;;;;;28.35;49.15;99070.36;67686;1278;1016183;-62
2023/06/25 11:51:15;;;;;;;18.50;5.90;;;;;;;28.29;50.03;99069.52;67824;1278;1016451;-70
2023/06/25 11:54:19;;;;;;;20.20;6.70;;;;;;;28.38;49.11;99061.11;67789;1278;1016362;-69
2023/06/25 11:57:22;;;;;;;16.30;5.90;;;;;;;29.24;47.86;99055.06;67837;1278;1016409;-70
2023/06/25 12:00:25;;;;;;;19.90;6.20;;;;;;;29.94;46.85;99052.32;67769;1278;1016245;-66
2023/06/25 12:03:30;;;;;;;17.00;6.10;;;;;;;30.36;45.36;99044.05;67769;1278;1016437;-66
2023/06/25 12:06:33;;;;;;;18.90;6.30;;;;;;;30.82;43.77;99044.55;67835;1278;1016494;-70
2023/06/25 12:09:35;;;;;;;15.90;6.00;;;;;;;30.89;41.60;99042.95;67786;1278;1016071;-63
2023/06/25 12:12:38;;;;;;;16.40;5.60;;;;;;;31.21;41.65;99039.59;67807;1278;1017326;-67
2023/06/25 12:15:42;;;;;;;17.20;5.60;;;;;;;31.44;40.80;99039.10;67727;1278;1016724;-64
2023/06/25 12:18:45;;;;;;;16.80;5.80;;;;;;;31.54;39.96;99032.74;67812;1278;1016413;-66
2023/06/25 12:21:48;;;;;;;17.50;5.90;;;;;;;31.55;37.19;99032.20;67786;1278;1016697;-68
2023/06/25 12:24:50;;;;;;;17.80;6.10;;;;;;;31.78;39.33;99020.83;67777;1278;1016966;-64
2023/06/25 12:27:54;;;;;;;18.60;5.80;;;;;;;31.99;40.29;99024.67;67848;1278;1016272;-63
2023/06/25 12:30:58;;;;;;;15.40;5.60;;;;;;;31.66;40.53;99033.20;67822;1278;1016811;-64
2023/06/25 12:34:01;;;;;;;17.60;5.80;;;;;;;30.84;41.18;99029.83;67800;1278;1016503;-66
2023/06/25 12:37:04;;;;;;;16.20;5.70;;;;;;;30.31;42.71;99028.80;67797;1278;1016570;-70
2023/06/25 12:40:08;;;;;;;16.30;5.90;;;;;;;29.92;42.76;99021.68;67834;1278;1016520;-68
2023/06/25 12:43:11;;;;;;;20.90;5.80;;;;;;;29.94;43.04;99019.80;67809;1278;1016483;-63
2023/06/25 12:46:13;;;;;;;15.70;5.30;;;;;;;30.61;42.97;99017.42;67766;1278;1016471;-63
2023/06/25 12:49:16;;;;;;;16.90;5.90;;;;;;;31.47;40.81;99013.73;67815;1278;1018902;-70
2023/06/25 12:52:20;;;;;;;17.20;5.90;;;;;;;31.83;38.12;99015.08;67791;1260;1016746;-68
2023/06/25 12:55:23;;;;;;;18.10;6.30;;;;;;;32.13;38.21;99003.39;67842;1278;1015829;-70
2023/06/25 12:58:26;;;;;;;17.80;5.80;;;;;;;31.92;37.43;99002.08;67814;1278;1016465;-65
2023/06/25 13:01:30;;;;;;;16.80;6.20;;;;;;;31.52;37.34;99001.30;67844;1278;1016272;-69
2023/06/25 13:04:33;;;;;;;19.80;5.80;;;;;;;31.58;37.72;99002.52;67846;1278;1016412;-70
2023/06/25 13:07:36;;;;;;;17.10;5.70;;;;;;;31.93;34.93;99000.42;67824;1278;1016449;-70
2023/06/25 13:10:39;;;;;;;15.40;5.50;;;;;;;31.97;35.49;98994.83;67792;1278;1016385;-67
2023/06/25 13:13:42;;;;;;;19.10;5.90;;;;;;;31.42;38.83;98990.65;67817;1278;1016135;-70
2023/06/25 13:16:46;;;;;;;17.30;5.70;;;;;;;30.81;39.62;98997.63;67847;1278;1016461;-70
2023/06/25 13:19:49;;;;;;;17.70;5.40;;;;;;;30.57;40.77;98989.28;67798;1278;1016480;-63
2023/06/25 13:23:08;;;;;;;18.10;6.00;;;;;;;30.77;40.56;98994.16;67858;1278;1016395;-63
2023/06/25 13:26:10;;;;;;;18.50;6.10;;;;;;;30.37;40.77;98998.10;67782;1278;1016387;-70
2023/06/25 13:29:13;;;;;;;18.50;6.20;;;;;;;30.04;40.57;98998.63;67809;1278;1016452;-71
2023/06/25 13:32:16;;;;;;;17.90;6.00;;;;;;;29.65;40.79;98998.35;67817;1278;1018246;-70
2023/06/25 13:35:20;;;;;;;16.00;5.60;;;;;;;29.32;41.05;98999.19;67835;1278;1016944;-69
2023/06/25 13:38:23;;;;;;;17.70;6.20;;;;;;;29.28;41.39;98995.84;67852;1278;1016003;-70
2023/06/25 13:41:26;;;;;;;18.90;6.40;;;;;;;29.22;42.14;98991.06;67791;1278;1016335;-69
2023/06/25 13:44:29;;;;;;;18.40;6.40;;;;;;;29.24;42.81;98995.00;67760;1278;1018180;-70
2023/06/25 13:47:31;;;;;;;20.10;6.90;;;;;;;29.10;43.57;98996.70;67770;1278;1016278;-70
2023/06/25 13:50:34;;;;;;;17.80;6.10;;;;;;;29.01;43.77;98992.95;67779;1278;1016399;-63